Time;durP1;ratioP1;P1;durP2;ratioP2;P2;SDS_P1;SDS_P2;PMS_P1;PMS_P2;Temp;Humidity;BMP_temperature;BMP_pressure;BME280_temperature;BME280_humidity;BME280_pressure;Samples;Min_cycle;Max_cycle;Signal;HPM_P1;HPM_P2
2020/12/03 00:01:48;;;;;;;173.30;110.50;;;;;;;;;;5052952;28;20461;-83
2020/12/03 00:04:14;;;;;;;167.80;108.80;;;;;;;;;;5035225;28;20396;-84
2020/12/03 00:06:42;;;;;;;179.50;112.82;;;;;;;;;;5035072;28;20398;-84
2020/12/03 00:09:10;;;;;;;172.80;111.00;;;;;;;;;;5052998;28;20442;-84
2020/12/03 00:11:38;;;;;;;175.53;111.83;;;;;;;;;;5035098;28;20458;-83
2020/12/03 00:14:04;;;;;;;186.83;115.83;;;;;;;;;;5034736;28;20455;-83
2020/12/03 00:16:31;;;;;;;181.52;113.10;;;;;;;;;;5053257;28;20376;-83
2020/12/03 00:18:57;;;;;;;176.07;111.03;;;;;;;;;;5052521;28;20352;-86
2020/12/03 00:21:49;;;;;;;175.37;109.77;;;;;;;;;;5034941;28;20787;-83
2020/12/03 00:24:23;;;;;;;168.38;107.88;;;;;;;;;;5030304;28;20968;-84
2020/12/03 00:26:49;;;;;;;178.10;111.95;;;;;;;;;;5034460;28;20384;-84
2020/12/03 00:29:15;;;;;;;183.65;113.00;;;;;;;;;;5034503;28;20417;-85
2020/12/03 00:31:45;;;;;;;181.15;111.88;;;;;;;;;;5034474;28;20387;-83
2020/12/03 00:34:12;;;;;;;177.20;112.15;;;;;;;;;;5052572;28;20387;-83
2020/12/03 00:36:38;;;;;;;169.13;108.60;;;;;;;;;;5034260;28;20500;-84
2020/12/03 00:39:06;;;;;;;166.98;108.03;;;;;;;;;;5034204;28;20916;-81
2020/12/03 00:41:32;;;;;;;161.02;105.10;;;;;;;;;;5052271;28;20449;-84
2020/12/03 00:43:58;;;;;;;154.52;102.28;;;;;;;;;;5034654;28;20773;-84
2020/12/03 00:46:28;;;;;;;154.77;101.70;;;;;;;;;;5035080;28;20451;-86
2020/12/03 00:48:54;;;;;;;159.43;102.28;;;;;;;;;;5053206;28;20421;-84
2020/12/03 00:51:20;;;;;;;149.60;98.60;;;;;;;;;;5052330;28;20893;-84
2020/12/03 00:53:46;;;;;;;144.37;96.47;;;;;;;;;;5033983;28;20380;-85
2020/12/03 00:56:12;;;;;;;153.02;99.72;;;;;;;;;;5054151;28;20364;-85
2020/12/03 00:58:38;;;;;;;145.85;96.13;;;;;;;;;;5053751;28;20364;-84
2020/12/03 01:01:04;;;;;;;146.98;94.78;;;;;;;;;;5052952;28;20449;-83
2020/12/03 01:03:30;;;;;;;144.32;96.32;;;;;;;;;;5051538;28;20356;-84
2020/12/03 01:05:56;;;;;;;150.30;96.13;;;;;;;;;;5034016;28;20382;-84
2020/12/03 01:08:22;;;;;;;146.18;97.07;;;;;;;;;;5051529;28;20360;-83
2020/12/03 01:10:48;;;;;;;143.07;94.68;;;;;;;;;;5033792;28;20376;-83
2020/12/03 01:13:14;;;;;;;141.65;93.82;;;;;;;;;;5033794;28;20379;-83
2020/12/03 01:15:40;;;;;;;143.57;94.83;;;;;;;;;;5033662;28;20884;-83
2020/12/03 01:18:06;;;;;;;149.15;97.22;;;;;;;;;;5051439;28;20431;-83
2020/12/03 01:20:33;;;;;;;145.07;95.90;;;;;;;;;;5051037;28;20417;-83
2020/12/03 01:22:59;;;;;;;139.57;92.68;;;;;;;;;;5051022;28;20770;-84
2020/12/03 01:25:26;;;;;;;134.65;90.00;;;;;;;;;;5051249;28;20711;-83
2020/12/03 01:27:52;;;;;;;140.38;91.53;;;;;;;;;;5051591;28;20387;-85
2020/12/03 01:30:19;;;;;;;135.33;91.13;;;;;;;;;;5051087;28;20390;-83
2020/12/03 01:32:45;;;;;;;139.75;92.32;;;;;;;;;;5033343;28;20410;-83
2020/12/03 01:35:12;;;;;;;145.85;93.97;;;;;;;;;;5033133;28;20407;-83
2020/12/03 01:37:38;;;;;;;139.80;92.18;;;;;;;;;;5033259;28;20364;-83
2020/12/03 01:40:06;;;;;;;139.52;92.53;;;;;;;;;;5051046;28;20367;-83
2020/12/03 01:42:32;;;;;;;139.15;91.50;;;;;;;;;;5051098;28;20391;-84
2020/12/03 01:44:58;;;;;;;135.95;91.95;;;;;;;;;;5050948;28;20367;-84
2020/12/03 01:47:33;;;;;;;133.88;89.15;;;;;;;;;;5033018;28;20376;-84
2020/12/03 01:50:00;;;;;;;140.35;91.93;;;;;;;;;;5050682;28;20405;-83
2020/12/03 01:52:26;;;;;;;140.10;92.03;;;;;;;;;;5033104;28;20375;-84
2020/12/03 01:54:52;;;;;;;145.55;92.22;;;;;;;;;;5051099;28;20356;-84
2020/12/03 01:57:41;;;;;;;144.75;91.97;;;;;;;;;;5033125;28;20855;-83
2020/12/03 02:00:12;;;;;;;145.88;94.18;;;;;;;;;;5033439;28;20386;-84
2020/12/03 02:02:39;;;;;;;157.38;97.93;;;;;;;;;;5050445;28;20439;-83
2020/12/03 02:05:07;;;;;;;147.05;92.53;;;;;;;;;;5032875;28;20368;-84
2020/12/03 02:07:33;;;;;;;149.70;94.88;;;;;;;;;;5032787;28;20371;-83
2020/12/03 02:09:59;;;;;;;152.93;95.28;;;;;;;;;;5050077;28;20356;-83
2020/12/03 02:12:25;;;;;;;158.63;98.20;;;;;;;;;;5032861;28;20383;-83
2020/12/03 02:14:51;;;;;;;150.85;96.35;;;;;;;;;;5032804;28;20462;-83
2020/12/03 02:17:17;;;;;;;150.32;97.38;;;;;;;;;;5032806;28;20372;-83
2020/12/03 02:19:43;;;;;;;157.33;98.33;;;;;;;;;;5032609;28;20425;-83
2020/12/03 02:22:10;;;;;;;158.02;97.18;;;;;;;;;;5050662;28;20407;-84
2020/12/03 02:24:40;;;;;;;156.05;96.15;;;;;;;;;;5032893;28;20371;-84
2020/12/03 02:27:07;;;;;;;157.90;99.10;;;;;;;;;;5032600;28;20387;-84
2020/12/03 02:29:33;;;;;;;162.87;99.57;;;;;;;;;;5032427;28;20905;-81
2020/12/03 02:31:59;;;;;;;157.82;98.28;;;;;;;;;;5050561;28;20363;-83
2020/12/03 02:34:26;;;;;;;163.25;101.28;;;;;;;;;;5032426;28;20388;-83
2020/12/03 02:36:52;;;;;;;163.73;99.57;;;;;;;;;;5050728;28;20363;-83
2020/12/03 02:39:19;;;;;;;160.40;98.95;;;;;;;;;;5032437;28;20911;-83
2020/12/03 02:41:45;;;;;;;160.80;98.57;;;;;;;;;;5050336;28;20428;-83
2020/12/03 02:44:11;;;;;;;154.57;97.38;;;;;;;;;;5050252;28;20438;-84
2020/12/03 02:46:37;;;;;;;153.45;96.20;;;;;;;;;;5032781;28;20376;-83
2020/12/03 02:49:03;;;;;;;151.35;95.28;;;;;;;;;;5032466;28;20394;-82
2020/12/03 02:51:29;;;;;;;152.10;95.50;;;;;;;;;;5050578;28;20364;-84
2020/12/03 02:53:55;;;;;;;148.82;94.25;;;;;;;;;;5050307;28;20360;-84
2020/12/03 02:56:20;;;;;;;148.53;96.10;;;;;;;;;;5032656;28;20422;-84
2020/12/03 02:58:46;;;;;;;150.18;94.65;;;;;;;;;;5032219;28;20376;-83
2020/12/03 03:01:12;;;;;;;146.40;93.28;;;;;;;;;;5032149;28;20822;-82
2020/12/03 03:03:38;;;;;;;146.48;93.75;;;;;;;;;;5032171;28;20383;-83
2020/12/03 03:06:04;;;;;;;149.25;95.88;;;;;;;;;;5050399;28;20861;-84
2020/12/03 03:08:30;;;;;;;153.65;95.68;;;;;;;;;;5050340;28;20364;-83
2020/12/03 03:10:56;;;;;;;149.10;93.47;;;;;;;;;;5050056;28;20771;-83
2020/12/03 03:13:22;;;;;;;149.37;94.23;;;;;;;;;;5050495;28;20450;-83
2020/12/03 03:15:48;;;;;;;149.90;96.05;;;;;;;;;;5032521;28;20455;-83
2020/12/03 03:18:14;;;;;;;152.23;97.60;;;;;;;;;;5050422;28;20433;-82
2020/12/03 03:20:40;;;;;;;146.70;93.73;;;;;;;;;;5050949;28;20410;-83
2020/12/03 03:23:06;;;;;;;144.65;92.97;;;;;;;;;;5035810;28;20453;-84
2020/12/03 03:25:32;;;;;;;139.75;92.68;;;;;;;;;;5035843;28;20375;-83
2020/12/03 03:27:58;;;;;;;143.83;93.23;;;;;;;;;;5035658;28;20372;-83
2020/12/03 03:30:24;;;;;;;138.88;90.18;;;;;;;;;;5053373;28;20586;-83
2020/12/03 03:32:50;;;;;;;135.38;87.20;;;;;;;;;;5053471;28;20902;-85
2020/12/03 03:35:18;;;;;;;142.60;92.35;;;;;;;;;;5053474;28;20462;-84
2020/12/03 03:37:44;;;;;;;138.05;89.60;;;;;;;;;;5035416;28;20379;-84
2020/12/03 03:40:10;;;;;;;140.13;91.75;;;;;;;;;;5053223;28;20418;-84
2020/12/03 03:42:36;;;;;;;138.02;90.63;;;;;;;;;;5053147;28;20436;-84
2020/12/03 03:45:03;;;;;;;137.63;91.55;;;;;;;;;;5035680;28;20723;-84
2020/12/03 03:47:29;;;;;;;131.00;88.95;;;;;;;;;;5035551;28;20372;-83
2020/12/03 03:49:55;;;;;;;138.43;91.18;;;;;;;;;;5035219;28;20374;-83
2020/12/03 03:52:21;;;;;;;135.17;90.70;;;;;;;;;;5035293;28;20380;-84
2020/12/03 03:54:47;;;;;;;138.02;87.70;;;;;;;;;;5035144;28;20372;-83
2020/12/03 03:57:13;;;;;;;135.18;87.95;;;;;;;;;;5034925;28;20459;-83
2020/12/03 03:59:39;;;;;;;129.98;86.43;;;;;;;;;;5035148;28;20380;-84
2020/12/03 04:02:05;;;;;;;129.77;87.15;;;;;;;;;;5035050;28;20403;-84
2020/12/03 04:04:31;;;;;;;131.68;87.70;;;;;;;;;;5053042;28;20406;-83
2020/12/03 04:06:57;;;;;;;132.73;88.82;;;;;;;;;;5053380;28;20368;-84
2020/12/03 04:09:23;;;;;;;135.03;89.07;;;;;;;;;;5052729;28;20703;-83
2020/12/03 04:11:49;;;;;;;131.68;88.95;;;;;;;;;;5034796;28;20372;-87
2020/12/03 04:14:15;;;;;;;130.32;88.38;;;;;;;;;;5035210;28;20357;-84
2020/12/03 04:16:41;;;;;;;134.67;88.97;;;;;;;;;;5052891;28;20712;-83
2020/12/03 04:19:07;;;;;;;130.60;89.05;;;;;;;;;;5034737;28;20419;-84
2020/12/03 04:21:36;;;;;;;131.00;88.70;;;;;;;;;;5034971;28;20909;-83
2020/12/03 04:24:02;;;;;;;127.95;88.03;;;;;;;;;;5034923;28;20452;-84
2020/12/03 04:26:28;;;;;;;129.43;89.38;;;;;;;;;;5052563;28;20360;-84
2020/12/03 04:28:54;;;;;;;129.18;88.35;;;;;;;;;;5052646;28;20368;-84
2020/12/03 04:31:20;;;;;;;135.93;89.40;;;;;;;;;;5033952;28;20371;-85
2020/12/03 04:33:46;;;;;;;127.80;89.03;;;;;;;;;;5034532;28;20441;-84
2020/12/03 04:36:12;;;;;;;133.83;89.47;;;;;;;;;;5034925;28;20427;-84
2020/12/03 04:38:38;;;;;;;130.63;89.07;;;;;;;;;;5034673;28;20372;-84
2020/12/03 04:41:05;;;;;;;127.35;87.38;;;;;;;;;;5034127;28;20400;-84
2020/12/03 04:43:35;;;;;;;131.77;89.57;;;;;;;;;;5052304;28;20445;-83
2020/12/03 04:46:01;;;;;;;126.80;86.45;;;;;;;;;;5052489;28;20360;-84
2020/12/03 04:48:27;;;;;;;131.95;89.65;;;;;;;;;;5052280;28;20363;-84
2020/12/03 04:51:03;;;;;;;130.50;89.47;;;;;;;;;;5034167;28;20382;-85
2020/12/03 04:53:39;;;;;;;132.45;89.07;;;;;;;;;;5034159;28;20386;-84
2020/12/03 04:56:19;;;;;;;131.60;89.90;;;;;;;;;;5034238;28;20475;-85
2020/12/03 04:59:04;;;;;;;133.70;90.03;;;;;;;;;;5052192;28;20356;-85
2020/12/03 05:01:57;;;;;;;134.85;91.82;;;;;;;;;;5034136;28;20825;-85
2020/12/03 05:04:38;;;;;;;124.88;87.60;;;;;;;;;;5034105;28;20416;-84
2020/12/03 05:07:06;;;;;;;132.40;89.68;;;;;;;;;;5052032;28;20446;-84
2020/12/03 05:09:55;;;;;;;123.68;86.28;;;;;;;;;;5033697;28;20360;-84
2020/12/03 05:12:27;;;;;;;129.40;86.45;;;;;;;;;;5052138;28;20407;-85
2020/12/03 05:14:55;;;;;;;125.82;87.85;;;;;;;;;;5051723;28;20360;-84
2020/12/03 05:17:21;;;;;;;127.18;86.07;;;;;;;;;;5033977;28;20735;-85
2020/12/03 05:19:54;;;;;;;132.38;89.22;;;;;;;;;;5051262;28;20433;-84
2020/12/03 05:22:21;;;;;;;130.38;88.35;;;;;;;;;;5051230;28;20482;-84
2020/12/03 05:24:47;;;;;;;123.53;86.50;;;;;;;;;;5052175;28;20865;-85
2020/12/03 05:27:18;;;;;;;126.53;87.85;;;;;;;;;;5033751;28;20372;-83
2020/12/03 05:29:46;;;;;;;129.38;88.28;;;;;;;;;;5033673;28;20727;-84
2020/12/03 05:32:11;;;;;;;130.80;89.70;;;;;;;;;;5033392;28;20367;-84
2020/12/03 05:34:37;;;;;;;130.57;89.57;;;;;;;;;;5033787;28;20382;-85
2020/12/03 05:37:06;;;;;;;129.65;88.72;;;;;;;;;;5051710;28;20422;-85
2020/12/03 05:39:52;;;;;;;122.78;84.75;;;;;;;;;;5038750;28;20375;-84
2020/12/03 05:42:35;;;;;;;129.57;88.88;;;;;;;;;;5052232;28;20514;-83
2020/12/03 05:45:08;;;;;;;132.30;87.72;;;;;;;;;;5065435;28;20861;-86
2020/12/03 05:47:35;;;;;;;130.00;88.93;;;;;;;;;;5057424;28;20438;-84
2020/12/03 05:50:04;;;;;;;125.18;85.13;;;;;;;;;;5054871;28;20465;-84
2020/12/03 05:52:31;;;;;;;127.55;86.22;;;;;;;;;;5044701;28;20459;-84
2020/12/03 05:54:59;;;;;;;117.93;82.85;;;;;;;;;;5057471;28;20368;-87
2020/12/03 05:57:51;;;;;;;121.67;85.13;;;;;;;;;;5039418;28;20461;-83
2020/12/03 06:00:17;;;;;;;120.85;85.63;;;;;;;;;;5048692;28;20376;-89
2020/12/03 06:02:47;;;;;;;118.35;83.18;;;;;;;;;;5064104;28;20947;-90
2020/12/03 06:05:26;;;;;;;120.75;83.82;;;;;;;;;;5046621;28;20882;-88
2020/12/03 06:08:04;;;;;;;116.05;80.57;;;;;;;;;;5063198;28;20501;-92
2020/12/03 06:10:41;;;;;;;116.00;80.97;;;;;;;;;;5048302;28;20457;-90
2020/12/03 06:13:34;;;;;;;113.68;81.25;;;;;;;;;;5041951;28;20453;-92
2020/12/03 06:16:02;;;;;;;109.70;78.35;;;;;;;;;;5048720;28;20422;-91
2020/12/03 06:18:35;;;;;;;111.28;77.88;;;;;;;;;;5062125;28;20437;-86
2020/12/03 06:21:08;;;;;;;111.38;80.03;;;;;;;;;;5058693;28;20897;-84
2020/12/03 06:23:49;;;;;;;114.38;80.25;;;;;;;;;;5064606;28;20373;-82
2020/12/03 06:26:18;;;;;;;115.75;80.93;;;;;;;;;;5071600;28;20374;-82
2020/12/03 06:29:03;;;;;;;115.18;79.85;;;;;;;;;;5072093;28;20373;-83
2020/12/03 06:31:32;;;;;;;111.50;78.18;;;;;;;;;;5054767;28;20376;-86
2020/12/03 06:34:18;;;;;;;116.13;80.13;;;;;;;;;;5039496;28;20430;-82
2020/12/03 06:36:46;;;;;;;111.35;79.10;;;;;;;;;;5035947;28;20408;-82
2020/12/03 06:39:25;;;;;;;117.32;80.90;;;;;;;;;;5036880;28;20413;-82
2020/12/03 06:41:56;;;;;;;112.85;79.82;;;;;;;;;;5056704;28;20408;-87
2020/12/03 06:44:49;;;;;;;113.72;81.90;;;;;;;;;;5048391;28;20381;-82
2020/12/03 06:47:27;;;;;;;104.88;74.30;;;;;;;;;;5015544;28;20425;-84
2020/12/03 06:50:02;;;;;;;108.97;77.57;;;;;;;;;;5042138;28;20370;-83
2020/12/03 06:52:28;;;;;;;107.78;76.22;;;;;;;;;;5063365;28;20406;-86
2020/12/03 06:55:04;;;;;;;108.97;77.03;;;;;;;;;;5044425;28;20372;-84
2020/12/03 06:57:36;;;;;;;104.85;76.00;;;;;;;;;;5065189;28;20794;-83
2020/12/03 07:00:21;;;;;;;111.10;77.10;;;;;;;;;;5059906;28;20365;-83
2020/12/03 07:02:59;;;;;;;104.45;74.95;;;;;;;;;;5038386;28;20446;-81
2020/12/03 07:05:47;;;;;;;109.00;76.47;;;;;;;;;;5071196;28;20374;-80
2020/12/03 07:08:32;;;;;;;106.03;75.18;;;;;;;;;;5063949;28;20376;-88
2020/12/03 07:11:07;;;;;;;109.03;77.38;;;;;;;;;;5073257;28;20442;-90
2020/12/03 07:13:44;;;;;;;108.57;75.20;;;;;;;;;;5073656;28;20459;-85
2020/12/03 07:16:20;;;;;;;107.82;74.93;;;;;;;;;;5047484;28;20378;-90
2020/12/03 07:18:57;;;;;;;103.55;74.97;;;;;;;;;;5069525;28;20366;-88
2020/12/03 07:21:43;;;;;;;103.57;74.78;;;;;;;;;;5070690;28;20405;-84
2020/12/03 07:24:09;;;;;;;109.80;75.18;;;;;;;;;;5063760;28;20398;-88
2020/12/03 07:26:54;;;;;;;103.50;73.97;;;;;;;;;;5056488;28;20453;-82
2020/12/03 07:29:27;;;;;;;109.35;76.57;;;;;;;;;;5068757;28;20362;-87
2020/12/03 07:31:57;;;;;;;106.25;74.72;;;;;;;;;;5073733;28;20377;-85
2020/12/03 07:34:37;;;;;;;105.22;74.85;;;;;;;;;;5046804;28;20501;-87
2020/12/03 07:37:07;;;;;;;104.68;75.00;;;;;;;;;;5043769;28;21196;-83
2020/12/03 07:39:35;;;;;;;102.90;73.07;;;;;;;;;;5046061;28;20435;-87
2020/12/03 07:42:13;;;;;;;105.68;73.65;;;;;;;;;;5056361;28;20395;-84
2020/12/03 07:44:41;;;;;;;103.07;72.77;;;;;;;;;;5046830;28;20397;-85
2020/12/03 07:47:16;;;;;;;106.18;75.53;;;;;;;;;;5071559;28;20749;-85
2020/12/03 07:49:46;;;;;;;110.30;76.17;;;;;;;;;;5065407;28;20496;-86
2020/12/03 07:52:20;;;;;;;106.22;74.85;;;;;;;;;;5077622;28;20374;-86
2020/12/03 07:54:49;;;;;;;109.63;77.07;;;;;;;;;;5070249;28;20374;-85
2020/12/03 07:57:24;;;;;;;102.43;73.05;;;;;;;;;;5054085;28;20880;-82
2020/12/03 07:59:50;;;;;;;101.70;72.18;;;;;;;;;;5052469;28;20376;-86
2020/12/03 08:02:37;;;;;;;103.22;73.43;;;;;;;;;;5068303;28;20405;-84
2020/12/03 08:05:22;;;;;;;100.68;72.47;;;;;;;;;;5062583;28;20418;-85
2020/12/03 08:07:49;;;;;;;106.88;73.85;;;;;;;;;;5056323;28;20374;-82
2020/12/03 08:10:33;;;;;;;102.00;73.30;;;;;;;;;;5054990;28;20470;-86
2020/12/03 08:13:06;;;;;;;102.53;72.03;;;;;;;;;;5073603;28;20385;-82
2020/12/03 08:15:34;;;;;;;99.93;71.90;;;;;;;;;;5064373;28;20370;-87
2020/12/03 08:18:00;;;;;;;99.00;71.50;;;;;;;;;;5049229;28;20370;-81
2020/12/03 08:20:42;;;;;;;99.85;70.63;;;;;;;;;;5063113;28;20882;-82
2020/12/03 08:23:11;;;;;;;96.33;69.00;;;;;;;;;;5065152;28;20812;-87
2020/12/03 08:25:42;;;;;;;95.53;67.53;;;;;;;;;;5060477;28;20356;-82
2020/12/03 08:28:17;;;;;;;107.83;70.53;;;;;;;;;;5062264;28;20362;-86
2020/12/03 08:30:52;;;;;;;91.25;65.90;;;;;;;;;;5058710;28;20372;-82
2020/12/03 08:33:34;;;;;;;90.97;64.85;;;;;;;;;;5065229;28;20378;-83
2020/12/03 08:36:05;;;;;;;92.47;67.17;;;;;;;;;;5057071;28;20383;-82
2020/12/03 08:38:33;;;;;;;93.53;67.78;;;;;;;;;;5074074;28;20412;-82
2020/12/03 08:41:03;;;;;;;96.70;67.00;;;;;;;;;;5068525;28;20359;-83
2020/12/03 08:43:33;;;;;;;90.93;65.88;;;;;;;;;;5045595;28;20848;-82
2020/12/03 08:48:29;;;;;;;88.77;63.73;;;;;;;;;;5073246;28;20903;-80
2020/12/03 08:50:59;;;;;;;91.28;65.13;;;;;;;;;;5043050;28;20376;-81
2020/12/03 08:53:28;;;;;;;92.50;63.95;;;;;;;;;;5051750;28;20364;-85
2020/12/03 08:55:56;;;;;;;87.40;63.47;;;;;;;;;;5063280;28;20905;-85
2020/12/03 08:58:23;;;;;;;87.07;64.10;;;;;;;;;;5063206;28;20366;-85
2020/12/03 09:00:53;;;;;;;84.60;62.38;;;;;;;;;;5048673;28;20372;-83
2020/12/03 09:03:21;;;;;;;88.32;63.00;;;;;;;;;;5064959;28;20410;-87
2020/12/03 09:05:49;;;;;;;84.17;61.33;;;;;;;;;;5064392;28;20367;-86
2020/12/03 09:08:20;;;;;;;86.78;61.42;;;;;;;;;;5069144;28;20378;-85
2020/12/03 09:10:48;;;;;;;89.85;63.25;;;;;;;;;;5072807;28;20370;-86
2020/12/03 09:13:20;;;;;;;82.97;60.72;;;;;;;;;;5064920;28;20366;-84
2020/12/03 09:15:46;;;;;;;86.37;61.30;;;;;;;;;;5070983;28;20376;-86
2020/12/03 09:18:13;;;;;;;82.87;60.80;;;;;;;;;;5064954;28;20422;-87
2020/12/03 09:20:43;;;;;;;90.47;60.40;;;;;;;;;;5057009;28;20409;-85
2020/12/03 09:23:18;;;;;;;85.43;61.88;;;;;;;;;;5061984;28;20403;-85
2020/12/03 09:25:45;;;;;;;85.55;61.50;;;;;;;;;;5064439;28;20362;-86
2020/12/03 09:28:11;;;;;;;85.90;62.30;;;;;;;;;;5063519;28;20358;-85
2020/12/03 09:30:39;;;;;;;92.15;60.42;;;;;;;;;;5061082;28;20925;-87
2020/12/03 09:33:08;;;;;;;87.70;61.78;;;;;;;;;;5059148;28;20399;-88
2020/12/03 09:35:35;;;;;;;85.10;60.75;;;;;;;;;;5061501;28;20388;-84
2020/12/03 09:38:07;;;;;;;82.53;59.58;;;;;;;;;;5044962;28;20943;-81
2020/12/03 09:40:34;;;;;;;81.60;59.10;;;;;;;;;;5064762;28;20364;-82
2020/12/03 09:43:01;;;;;;;83.20;59.40;;;;;;;;;;5069490;28;20394;-82
2020/12/03 09:45:36;;;;;;;79.87;58.27;;;;;;;;;;5050196;28;20799;-85
2020/12/03 09:48:02;;;;;;;80.05;58.33;;;;;;;;;;5041430;28;20368;-85
2020/12/03 09:50:28;;;;;;;75.55;56.97;;;;;;;;;;5056107;28;21170;-83
2020/12/03 09:52:55;;;;;;;75.75;56.95;;;;;;;;;;5052959;28;20719;-84
2020/12/03 09:55:21;;;;;;;76.32;54.45;;;;;;;;;;5052464;28;20363;-83
2020/12/03 09:57:57;;;;;;;76.55;56.00;;;;;;;;;;5034917;28;20700;-82
2020/12/03 10:00:26;;;;;;;74.40;54.10;;;;;;;;;;5052682;28;20403;-83
2020/12/03 10:02:55;;;;;;;75.93;54.25;;;;;;;;;;5052401;28;20408;-82
2020/12/03 10:05:30;;;;;;;76.53;55.95;;;;;;;;;;5052908;28;20447;-83
2020/12/03 10:08:05;;;;;;;78.77;56.57;;;;;;;;;;5034929;28;20380;-83
2020/12/03 10:10:51;;;;;;;74.55;54.90;;;;;;;;;;5052578;28;20360;-83
2020/12/03 10:13:38;;;;;;;77.95;56.03;;;;;;;;;;5052419;28;20777;-83
2020/12/03 10:16:20;;;;;;;76.60;56.65;;;;;;;;;;5050920;28;20774;-84
2020/12/03 10:18:53;;;;;;;77.53;56.97;;;;;;;;;;5052724;28;20363;-82
2020/12/03 10:21:26;;;;;;;77.57;56.05;;;;;;;;;;5052143;28;20438;-82
2020/12/03 10:24:12;;;;;;;75.70;53.97;;;;;;;;;;5052663;28;20829;-82
2020/12/03 10:26:48;;;;;;;70.85;54.20;;;;;;;;;;5052858;28;20367;-83
2020/12/03 10:29:16;;;;;;;79.38;55.90;;;;;;;;;;5053313;28;20410;-83
2020/12/03 10:31:44;;;;;;;72.88;53.85;;;;;;;;;;5064313;28;20366;-86
2020/12/03 10:34:11;;;;;;;72.30;53.20;;;;;;;;;;5076466;28;20395;-84
2020/12/03 10:36:50;;;;;;;69.70;51.72;;;;;;;;;;5056185;28;20391;-84
2020/12/03 10:39:17;;;;;;;71.03;51.88;;;;;;;;;;5069299;28;20463;-89
2020/12/03 10:41:45;;;;;;;66.38;49.40;;;;;;;;;;5060682;28;20880;-90
2020/12/03 10:44:15;;;;;;;69.80;50.05;;;;;;;;;;5077955;28;20369;-90
2020/12/03 10:46:45;;;;;;;66.18;48.38;;;;;;;;;;5078344;28;20346;-88
2020/12/03 10:49:15;;;;;;;64.43;48.30;;;;;;;;;;5059959;28;20374;-88
2020/12/03 10:51:41;;;;;;;65.68;49.95;;;;;;;;;;5072019;28;20391;-90
2020/12/03 10:54:07;;;;;;;63.67;47.70;;;;;;;;;;5067450;28;20367;-89
2020/12/03 10:56:36;;;;;;;67.25;47.53;;;;;;;;;;5058326;28;20376;-88
2020/12/03 10:59:06;;;;;;;65.40;47.83;;;;;;;;;;5057793;28;20386;-86
2020/12/03 11:01:33;;;;;;;61.28;47.45;;;;;;;;;;5058092;28;20479;-92
2020/12/03 11:04:04;;;;;;;66.32;49.42;;;;;;;;;;5061311;28;20382;-87
2020/12/03 11:06:31;;;;;;;64.93;48.65;;;;;;;;;;5060093;28;20359;-91
2020/12/03 11:08:57;;;;;;;63.10;46.97;;;;;;;;;;5024837;28;20384;-84
2020/12/03 11:11:24;;;;;;;64.20;48.70;;;;;;;;;;5059310;28;20365;-93
2020/12/03 11:13:50;;;;;;;65.25;48.53;;;;;;;;;;5083869;28;20362;-89
2020/12/03 11:16:22;;;;;;;61.42;47.95;;;;;;;;;;5091196;28;20454;-90
2020/12/03 11:18:49;;;;;;;65.38;47.72;;;;;;;;;;5061076;28;20378;-83
2020/12/03 11:21:23;;;;;;;63.38;47.15;;;;;;;;;;5056583;28;20492;-87
2020/12/03 11:23:56;;;;;;;67.75;47.88;;;;;;;;;;5055712;28;20382;-86
2020/12/03 11:26:25;;;;;;;67.15;46.83;;;;;;;;;;5075777;28;20354;-84
2020/12/03 11:28:51;;;;;;;63.88;48.42;;;;;;;;;;5082297;28;20358;-85
2020/12/03 11:31:17;;;;;;;63.85;47.70;;;;;;;;;;5087786;28;20362;-91
2020/12/03 11:33:43;;;;;;;62.33;46.55;;;;;;;;;;5077984;28;20374;-87
2020/12/03 11:36:17;;;;;;;63.63;47.03;;;;;;;;;;5078428;28;20852;-89
2020/12/03 11:38:51;;;;;;;59.53;45.35;;;;;;;;;;5057655;28;20367;-87
2020/12/03 11:49:27;;;;;;;60.58;46.45;;;;;;;;;;5059758;28;20402;-85
2020/12/03 11:51:55;;;;;;;65.13;46.25;;;;;;;;;;5065886;28;20374;-87
2020/12/03 11:54:28;;;;;;;63.73;47.57;;;;;;;;;;5065980;28;20470;-88
2020/12/03 11:56:57;;;;;;;63.03;46.90;;;;;;;;;;5074883;28;20381;-86
2020/12/03 11:59:29;;;;;;;62.63;46.50;;;;;;;;;;5075604;28;20437;-90
2020/12/03 12:01:59;;;;;;;61.03;47.67;;;;;;;;;;5075273;28;20409;-88
2020/12/03 12:12:11;;;;;;;61.42;46.03;;;;;;;;;;5055862;28;20364;-92
2020/12/03 12:14:37;;;;;;;62.45;45.28;;;;;;;;;;5056471;28;20372;-90
2020/12/03 12:17:03;;;;;;;71.88;51.85;;;;;;;;;;5057024;28;20834;-89
2020/12/03 12:19:30;;;;;;;58.15;45.47;;;;;;;;;;5039178;28;20380;-88
2020/12/03 12:21:57;;;;;;;60.92;45.35;;;;;;;;;;5056901;28;20388;-92
2020/12/03 12:24:23;;;;;;;59.53;44.83;;;;;;;;;;5057193;28;20367;-87
2020/12/03 12:26:50;;;;;;;64.10;46.22;;;;;;;;;;5056780;28;20379;-87
2020/12/03 12:29:16;;;;;;;60.88;45.72;;;;;;;;;;5056033;28;20438;-84
2020/12/03 12:31:42;;;;;;;59.25;44.97;;;;;;;;;;5055738;28;20360;-85
2020/12/03 12:34:08;;;;;;;59.03;44.85;;;;;;;;;;5037382;28;20781;-88
2020/12/03 12:36:34;;;;;;;62.47;46.28;;;;;;;;;;5055906;28;20355;-85
2020/12/03 12:39:00;;;;;;;61.20;45.88;;;;;;;;;;5055113;28;20368;-87
2020/12/03 12:41:26;;;;;;;59.53;45.03;;;;;;;;;;5058685;28;20734;-94
2020/12/03 12:43:52;;;;;;;61.35;45.03;;;;;;;;;;5063255;28;20366;-90
2020/12/03 12:46:22;;;;;;;61.67;45.30;;;;;;;;;;5063447;28;20356;-91
2020/12/03 12:48:49;;;;;;;58.38;44.00;;;;;;;;;;5056189;28;20367;-87
2020/12/03 12:51:15;;;;;;;60.27;44.57;;;;;;;;;;5054912;28;20439;-86
2020/12/03 12:53:41;;;;;;;58.00;43.13;;;;;;;;;;5054539;28;20406;-85
2020/12/03 12:56:08;;;;;;;56.35;43.08;;;;;;;;;;5063949;28;20415;-85
2020/12/03 12:58:34;;;;;;;60.13;46.22;;;;;;;;;;5080879;28;20354;-86
2020/12/03 13:01:01;;;;;;;62.00;51.22;;;;;;;;;;5075561;28;20418;-89
2020/12/03 13:03:27;;;;;;;59.93;45.47;;;;;;;;;;5076592;28;20394;-87
2020/12/03 13:05:53;;;;;;;59.92;44.72;;;;;;;;;;5074660;28;20358;-86
2020/12/03 13:08:19;;;;;;;81.90;66.82;;;;;;;;;;5056207;28;20552;-85
2020/12/03 13:10:45;;;;;;;60.85;48.08;;;;;;;;;;5074227;28;20355;-85
2020/12/03 13:13:11;;;;;;;59.00;43.72;;;;;;;;;;5072891;28;20384;-84
2020/12/03 13:15:37;;;;;;;62.53;46.30;;;;;;;;;;5073583;28;20452;-87
2020/12/03 13:18:03;;;;;;;69.90;56.60;;;;;;;;;;5073514;28;20441;-84
2020/12/03 13:20:29;;;;;;;57.30;43.33;;;;;;;;;;5073574;28;20411;-83
2020/12/03 13:22:55;;;;;;;57.15;42.78;;;;;;;;;;5073774;28;20404;-86
2020/12/03 13:25:21;;;;;;;57.92;43.55;;;;;;;;;;5073959;28;20363;-86
2020/12/03 13:27:47;;;;;;;56.70;43.37;;;;;;;;;;5072450;28;20370;-84
2020/12/03 13:30:13;;;;;;;59.10;44.58;;;;;;;;;;5072635;28;20358;-85
2020/12/03 13:32:39;;;;;;;67.18;44.22;;;;;;;;;;5072850;28;20358;-85
2020/12/03 13:35:05;;;;;;;58.72;43.05;;;;;;;;;;5072728;28;20382;-85
2020/12/03 13:37:31;;;;;;;60.07;44.97;;;;;;;;;;5073108;28;20401;-85
2020/12/03 13:39:58;;;;;;;60.38;43.47;;;;;;;;;;5072205;28;20354;-85
2020/12/03 13:42:24;;;;;;;64.28;45.90;;;;;;;;;;5072877;28;20398;-84
2020/12/03 13:44:50;;;;;;;61.03;44.70;;;;;;;;;;5075683;28;20358;-85
2020/12/03 13:47:16;;;;;;;60.80;43.88;;;;;;;;;;5072885;28;20462;-84
2020/12/03 13:49:42;;;;;;;61.20;43.40;;;;;;;;;;5072484;28;20362;-85
2020/12/03 13:52:08;;;;;;;58.50;43.00;;;;;;;;;;5071957;28;20703;-85
2020/12/03 13:54:34;;;;;;;59.40;43.72;;;;;;;;;;5073105;28;20708;-84
2020/12/03 13:57:00;;;;;;;59.33;43.45;;;;;;;;;;5073374;28;20420;-88
2020/12/03 13:59:26;;;;;;;61.30;44.33;;;;;;;;;;5074591;28;20722;-85
2020/12/03 14:01:53;;;;;;;59.97;43.40;;;;;;;;;;5072468;28;20401;-81
2020/12/03 14:04:19;;;;;;;58.22;43.28;;;;;;;;;;5070393;28;21365;-84
2020/12/03 14:06:45;;;;;;;59.78;43.58;;;;;;;;;;5072440;28;20389;-84
2020/12/03 14:09:11;;;;;;;58.55;43.70;;;;;;;;;;5070299;28;20382;-82
2020/12/03 14:11:39;;;;;;;58.38;43.30;;;;;;;;;;5053667;28;20477;-82
2020/12/03 14:14:05;;;;;;;66.47;50.20;;;;;;;;;;5070931;28;20366;-84
2020/12/03 14:16:31;;;;;;;55.85;41.35;;;;;;;;;;5070731;28;20453;-84
2020/12/03 14:18:57;;;;;;;57.83;42.50;;;;;;;;;;5053627;28;20531;-83
2020/12/03 14:21:23;;;;;;;57.03;43.17;;;;;;;;;;5071329;28;20461;-84
2020/12/03 14:23:49;;;;;;;58.67;41.97;;;;;;;;;;5076595;28;20717;-83
2020/12/03 14:26:15;;;;;;;57.25;41.17;;;;;;;;;;5072283;28;20365;-85
2020/12/03 14:28:41;;;;;;;59.70;43.20;;;;;;;;;;5071627;28;20370;-85
2020/12/03 14:31:07;;;;;;;58.03;42.63;;;;;;;;;;5071574;28;20419;-84
2020/12/03 14:33:33;;;;;;;57.53;42.58;;;;;;;;;;5071436;28;20350;-86
2020/12/03 14:35:59;;;;;;;57.10;41.40;;;;;;;;;;5071774;28;20828;-84
2020/12/03 14:38:25;;;;;;;52.30;40.50;;;;;;;;;;5070520;28;20415;-84
2020/12/03 14:40:51;;;;;;;60.42;42.22;;;;;;;;;;5071178;28;20721;-85